Valdemorillo, Spain
Current Conditions -  °F | °C
As of 9:30 AM on Wednesday 26 Nov 2014 (Local Time) from LEVS Reporting Station
Broken Clouds Broken Clouds  
Wind Chill: 50°   Ceiling: 3000
Heat Index: 50°   Visibility: 6mi
Dew Point: 48°   Wind: 5mph
Humidity: 94%   Direction: 260°W
Pressure: 29.94"   Gusts: NA
Location:  40.5°N, 4.07°W
Report Text: LEVS 260830Z 26004KT 240V300 9999 SCT020 BKN030 10/09 Q1014
Loading
Personal Weather Stations






























Interactive Weather Map New forecast layout! Learn more

10-Day Weather Forecast

Advertisements
Track Severe Weather on mobile